createdAt,value
2022-10-28T00:04:14.784Z,11.80
2022-10-28T00:19:16.813Z,11.80
2022-10-28T00:34:21.416Z,11.40
2022-10-28T00:49:30.299Z,11.00
2022-10-28T01:04:32.599Z,11.30
2022-10-28T01:19:58.923Z,11.30
2022-10-28T01:35:00.751Z,11.00
2022-10-28T01:50:08.730Z,11.00
2022-10-28T02:05:40.109Z,11.00
2022-10-28T02:21:06.313Z,11.00
2022-10-28T02:36:14.001Z,10.40
2022-10-28T02:51:19.068Z,9.70
2022-10-28T03:06:21.055Z,10.10
2022-10-28T03:21:22.965Z,10.30
2022-10-28T03:36:24.896Z,10.20
2022-10-28T03:51:26.809Z,10.60
2022-10-28T04:06:28.654Z,10.20
2022-10-28T04:21:30.516Z,10.30
2022-10-28T04:36:32.384Z,9.80
2022-10-28T04:51:34.324Z,10.30
2022-10-28T05:06:36.245Z,10.30
2022-10-28T05:21:38.193Z,10.30
2022-10-28T05:36:40.165Z,10.30
2022-10-28T05:51:42.069Z,10.30
2022-10-28T06:06:43.956Z,10.30
2022-10-28T06:21:44.311Z,10.60
2022-10-28T06:36:47.141Z,11.00
2022-10-28T06:51:50.589Z,11.50
2022-10-28T07:06:55.866Z,12.20
2022-10-28T07:21:57.844Z,13.40
2022-10-28T07:36:59.874Z,14.70
2022-10-28T07:52:01.864Z,17.30
2022-10-28T08:07:03.765Z,23.80
2022-10-28T08:22:05.701Z,24.20
2022-10-28T08:37:07.704Z,20.20
2022-10-28T08:52:47.965Z,20.50
2022-10-28T09:07:50.802Z,20.90
2022-10-28T09:22:59.849Z,21.90
2022-10-28T09:38:25.898Z,22.00
2022-10-28T09:53:46.520Z,21.90
2022-10-28T10:08:48.481Z,21.90
2022-10-28T10:23:50.336Z,22.40
2022-10-28T10:38:54.725Z,22.30
2022-10-28T10:54:01.806Z,22.80
2022-10-28T11:09:25.162Z,22.90
2022-10-28T11:24:56.923Z,22.80
2022-10-28T11:40:18.510Z,23.00
2022-10-28T11:55:34.887Z,23.20
2022-10-28T12:10:39.832Z,23.50
2022-10-28T12:25:46.471Z,23.60
2022-10-28T12:41:15.827Z,23.60
2022-10-28T12:56:26.571Z,23.60
2022-10-28T13:11:35.133Z,23.50
2022-10-28T13:26:41.229Z,23.20
2022-10-28T13:41:46.222Z,23.20
2022-10-28T13:56:50.502Z,23.00
2022-10-28T14:12:30.232Z,22.80
2022-10-28T14:27:41.867Z,22.60
2022-10-28T14:42:52.729Z,22.40
2022-10-28T14:57:55.222Z,22.00
2022-10-28T15:12:58.968Z,21.40
2022-10-28T15:28:00.926Z,20.80
2022-10-28T15:43:05.223Z,20.00
2022-10-28T15:58:12.634Z,19.40
2022-10-28T16:13:25.135Z,19.00
2022-10-28T16:28:28.396Z,18.50
2022-10-28T16:43:31.285Z,18.20
2022-10-28T16:58:34.396Z,17.80
2022-10-28T17:13:36.366Z,17.30
2022-10-28T17:28:38.336Z,16.90
2022-10-28T17:43:40.378Z,16.80
2022-10-28T17:58:42.332Z,16.60
2022-10-28T18:13:46.127Z,16.20
2022-10-28T18:28:49.180Z,15.60
2022-10-28T18:43:59.965Z,15.60
2022-10-28T18:59:04.218Z,15.40
2022-10-28T19:14:06.728Z,15.20
2022-10-28T19:29:10.146Z,15.10
2022-10-28T19:44:12.053Z,14.60
2022-10-28T19:59:13.999Z,14.40
2022-10-28T20:14:16.112Z,13.80
2022-10-28T20:29:18.025Z,13.90
2022-10-28T20:44:20.075Z,13.70
2022-10-28T20:59:21.986Z,13.40
2022-10-28T21:14:23.930Z,13.40
2022-10-28T21:29:25.887Z,13.60
2022-10-28T21:44:27.821Z,13.00
2022-10-28T21:59:29.904Z,12.90
2022-10-28T22:14:32.708Z,12.90
2022-10-28T22:29:34.696Z,12.80
2022-10-28T22:44:36.594Z,13.00
2022-10-28T22:59:38.455Z,13.00
2022-10-28T23:14:40.334Z,13.20
2022-10-28T23:29:42.241Z,13.40
2022-10-28T23:44:44.988Z,13.50
2022-10-28T23:59:46.856Z,13.20
